Time;durP1;ratioP1;P1;durP2;ratioP2;P2;SDS_P1;SDS_P2;PMS_P1;PMS_P2;Temp;Humidity;BMP_temperature;BMP_pressure;BME280_temperature;BME280_humidity;BME280_pressure;Samples;Min_cycle;Max_cycle;Signal;HPM_P1;HPM_P2
2023/08/28 00:00:03;;;;;;;2.87;1.30;;;;;;;15.54;100.00;97712.56;5073755;28;20230;-74
2023/08/28 00:02:29;;;;;;;2.33;1.73;;;;;;;15.51;100.00;97701.59;5073664;28;20216;-74
2023/08/28 00:04:56;;;;;;;2.80;1.50;;;;;;;15.51;100.00;97688.97;5073693;28;20200;-74
2023/08/28 00:07:22;;;;;;;3.57;1.60;;;;;;;15.42;100.00;97687.06;5073597;28;20204;-74
2023/08/28 00:09:48;;;;;;;2.20;1.40;;;;;;;15.48;100.00;97678.78;5073746;28;20681;-75
2023/08/28 00:12:16;;;;;;;2.20;1.80;;;;;;;15.56;100.00;97672.94;5073631;28;20231;-74
2023/08/28 00:14:42;;;;;;;4.30;1.90;;;;;;;15.59;100.00;97669.75;5073867;28;20208;-74
2023/08/28 00:17:08;;;;;;;2.63;1.50;;;;;;;15.56;100.00;97661.41;5073546;28;20201;-74
2023/08/28 00:19:35;;;;;;;1.40;1.30;;;;;;;15.61;100.00;97664.91;5073337;28;20220;-74
2023/08/28 00:22:01;;;;;;;2.47;1.47;;;;;;;15.52;100.00;97673.72;5073612;28;20210;-74
2023/08/28 00:24:27;;;;;;;3.20;1.77;;;;;;;15.46;100.00;97678.22;5073445;28;20211;-74
2023/08/28 00:26:54;;;;;;;5.67;1.87;;;;;;;15.46;100.00;97688.13;5073335;28;20201;-75
2023/08/28 00:29:20;;;;;;;2.50;1.53;;;;;;;15.62;100.00;97684.50;5073171;28;20723;-75
2023/08/28 00:31:47;;;;;;;2.87;1.70;;;;;;;15.50;100.00;97671.28;5073516;28;20572;-74
2023/08/28 00:34:13;;;;;;;4.73;2.00;;;;;;;15.50;100.00;97660.56;5076669;28;20243;-74
2023/08/28 00:36:40;;;;;;;3.80;1.50;;;;;;;15.41;100.00;97658.63;5076771;28;20228;-74
2023/08/28 00:39:06;;;;;;;4.67;2.10;;;;;;;15.49;100.00;97669.69;5076762;28;20729;-75
2023/08/28 00:41:33;;;;;;;4.63;1.67;;;;;;;15.48;100.00;97676.13;5076649;28;20671;-75
2023/08/28 00:44:00;;;;;;;4.30;1.63;;;;;;;15.45;100.00;97686.53;5076950;28;20215;-75
2023/08/28 00:46:27;;;;;;;4.70;1.90;;;;;;;15.48;100.00;97702.91;5076883;28;20254;-75
2023/08/28 00:48:53;;;;;;;2.00;1.70;;;;;;;15.46;100.00;97705.03;5076746;28;20220;-75
2023/08/28 00:51:20;;;;;;;2.83;1.60;;;;;;;15.35;100.00;97711.38;5076606;28;20219;-75
2023/08/28 00:53:47;;;;;;;1.80;1.70;;;;;;;15.42;100.00;97701.25;5076796;28;20642;-75
2023/08/28 00:56:13;;;;;;;2.80;1.60;;;;;;;15.46;100.00;97709.56;5076260;28;20230;-74
2023/08/28 00:58:41;;;;;;;5.20;1.70;;;;;;;15.51;100.00;97702.38;5076317;28;20233;-74
2023/08/28 01:01:07;;;;;;;2.90;1.50;;;;;;;15.52;100.00;97693.25;5076747;28;20239;-75
2023/08/28 01:03:33;;;;;;;3.80;1.70;;;;;;;15.55;100.00;97692.75;5076434;28;20264;-75
2023/08/28 01:06:29;;;;;;;2.70;1.70;;;;;;;15.55;100.00;97681.22;5076339;28;20287;-75
2023/08/28 01:09:08;;;;;;;6.53;1.70;;;;;;;15.63;100.00;97686.91;5076437;28;20308;-75
2023/08/28 01:11:36;;;;;;;1.93;1.77;;;;;;;15.62;100.00;97688.00;5076417;28;20207;-75
2023/08/28 01:14:12;;;;;;;3.83;1.73;;;;;;;15.48;100.00;97684.16;5076306;28;20200;-75
2023/08/28 01:16:41;;;;;;;3.63;1.83;;;;;;;15.44;100.00;97696.44;5091121;28;20209;-75
2023/08/28 01:19:17;;;;;;;2.63;1.40;;;;;;;15.52;100.00;97697.84;5076090;28;20220;-75
2023/08/28 01:21:49;;;;;;;3.43;1.53;;;;;;;15.41;100.00;97693.44;5075165;28;20188;-75
2023/08/28 01:24:21;;;;;;;2.37;1.60;;;;;;;15.34;100.00;97704.38;5076595;28;20200;-74
2023/08/28 01:26:48;;;;;;;3.77;1.60;;;;;;;15.40;100.00;97706.06;5076218;28;20254;-74
2023/08/28 01:29:14;;;;;;;2.50;1.40;;;;;;;15.43;100.00;97705.53;5076084;28;20586;-75
2023/08/28 01:31:41;;;;;;;3.40;1.87;;;;;;;15.39;100.00;97714.34;5076194;28;20240;-74
2023/08/28 01:34:08;;;;;;;3.33;1.80;;;;;;;15.38;100.00;97712.75;5076174;28;20682;-74
2023/08/28 01:36:44;;;;;;;2.93;1.40;;;;;;;15.35;100.00;97716.75;5076286;28;20651;-74
2023/08/28 01:39:21;;;;;;;1.40;1.30;;;;;;;15.36;100.00;97717.53;5076111;28;20301;-74
2023/08/28 01:41:49;;;;;;;3.03;1.47;;;;;;;15.33;100.00;97708.09;5076070;28;20204;-74
2023/08/28 01:44:18;;;;;;;4.87;1.70;;;;;;;15.29;100.00;97708.91;5075687;28;20208;-74
2023/08/28 01:46:45;;;;;;;2.00;1.50;;;;;;;15.34;100.00;97709.75;5075919;28;20265;-75
2023/08/28 01:49:12;;;;;;;2.27;1.70;;;;;;;15.36;100.00;97704.97;5075568;28;20228;-75
2023/08/28 01:51:39;;;;;;;6.23;1.60;;;;;;;15.45;100.00;97695.38;5075745;28;20204;-74
2023/08/28 01:54:07;;;;;;;2.37;1.67;;;;;;;15.33;100.00;97702.75;5074401;28;20204;-75
2023/08/28 01:56:34;;;;;;;4.93;1.50;;;;;;;15.26;100.00;97709.41;5075643;28;20224;-75
2023/08/28 01:59:02;;;;;;;3.30;1.67;;;;;;;15.24;100.00;97706.97;5075664;28;20264;-74
2023/08/28 02:01:30;;;;;;;2.20;1.33;;;;;;;15.17;100.00;97710.94;5075333;28;20266;-74
2023/08/28 02:03:57;;;;;;;4.17;1.73;;;;;;;15.23;100.00;97697.31;5076165;28;20204;-75
2023/08/28 02:06:25;;;;;;;2.83;2.00;;;;;;;15.30;100.00;97695.25;5074988;28;20208;-75
2023/08/28 02:08:52;;;;;;;4.53;2.10;;;;;;;15.25;100.00;97687.16;5075284;28;20590;-75
2023/08/28 02:11:19;;;;;;;2.80;2.07;;;;;;;15.33;100.00;97678.66;5075514;28;20296;-75
2023/08/28 02:13:45;;;;;;;3.13;2.17;;;;;;;15.32;100.00;97665.50;5075236;28;20291;-75
2023/08/28 02:16:13;;;;;;;2.17;2.00;;;;;;;15.44;100.00;97658.94;5075015;28;20236;-75
2023/08/28 02:18:41;;;;;;;2.97;1.77;;;;;;;15.37;100.00;97658.34;5075312;28;20745;-75
2023/08/28 02:21:08;;;;;;;3.43;2.23;;;;;;;15.41;100.00;97658.63;5075360;28;20205;-75
2023/08/28 02:23:37;;;;;;;4.70;2.10;;;;;;;15.40;100.00;97635.59;5074976;28;20541;-75
2023/08/28 02:26:05;;;;;;;3.43;1.97;;;;;;;15.42;100.00;97631.59;5074862;28;20716;-75
2023/08/28 02:28:33;;;;;;;2.40;2.00;;;;;;;15.45;100.00;97623.03;5074744;28;20231;-75
2023/08/28 02:31:03;;;;;;;5.33;2.07;;;;;;;15.40;100.00;97620.34;5074932;28;20192;-75
2023/08/28 02:33:31;;;;;;;3.53;2.00;;;;;;;15.39;100.00;97618.75;5074575;28;20209;-75
2023/08/28 02:36:03;;;;;;;2.47;2.00;;;;;;;15.42;100.00;97625.44;5074652;28;20225;-75
2023/08/28 02:38:31;;;;;;;2.77;2.10;;;;;;;15.42;100.00;97623.56;5074546;28;20240;-75
2023/08/28 02:41:07;;;;;;;3.27;2.10;;;;;;;15.23;100.00;97624.19;5074369;28;20216;-75
2023/08/28 02:43:36;;;;;;;2.73;2.10;;;;;;;15.31;100.00;97611.16;5074847;28;20200;-75
2023/08/28 02:46:05;;;;;;;2.10;1.77;;;;;;;15.28;100.00;97605.53;5074402;28;20201;-75
2023/08/28 02:48:33;;;;;;;5.00;1.90;;;;;;;15.31;100.00;97604.97;5074399;28;20804;-75
2023/08/28 02:50:59;;;;;;;2.50;1.90;;;;;;;15.40;100.00;97614.16;5074565;28;20242;-75
2023/08/28 02:53:26;;;;;;;2.87;1.97;;;;;;;15.38;100.00;97609.06;5075218;28;20208;-75
2023/08/28 02:56:35;;;;;;;3.77;1.50;;;;;;;15.27;100.00;97617.28;5088294;28;20225;-75
2023/08/28 02:59:01;;;;;;;4.17;1.80;;;;;;;15.29;100.00;97602.56;5012825;28;20236;-74
2023/08/28 03:01:28;;;;;;;4.83;1.67;;;;;;;15.30;100.00;97601.50;5082332;28;20295;-74
2023/08/28 03:03:54;;;;;;;3.43;1.53;;;;;;;15.31;100.00;97605.78;5094603;28;20203;-75
2023/08/28 03:06:20;;;;;;;2.03;1.47;;;;;;;15.28;100.00;97611.66;5094603;28;20199;-74
2023/08/28 03:08:47;;;;;;;3.53;1.77;;;;;;;15.30;100.00;97608.72;5094575;28;20232;-75
2023/08/28 03:11:13;;;;;;;2.97;1.70;;;;;;;15.22;100.00;97607.34;5094711;28;20207;-75
2023/08/28 03:13:40;;;;;;;2.47;1.50;;;;;;;15.18;100.00;97608.94;5094688;28;20203;-75
2023/08/28 03:16:06;;;;;;;2.33;1.80;;;;;;;15.22;100.00;97604.66;5094334;28;20227;-74
2023/08/28 03:18:33;;;;;;;3.23;1.83;;;;;;;15.15;100.00;97609.44;5094459;28;20199;-74
2023/08/28 03:20:59;;;;;;;2.63;1.73;;;;;;;15.09;100.00;97597.09;5094654;28;20215;-75
2023/08/28 03:23:26;;;;;;;3.20;1.80;;;;;;;15.11;100.00;97578.88;5094584;28;20204;-75
2023/08/28 03:25:52;;;;;;;3.13;1.60;;;;;;;15.02;100.00;97596.50;5094497;28;20196;-75
2023/08/28 03:28:18;;;;;;;1.90;1.63;;;;;;;15.03;100.00;97595.47;5093652;28;20671;-75
2023/08/28 03:30:45;;;;;;;5.40;1.87;;;;;;;15.14;100.00;97593.63;5094014;28;20565;-75
2023/08/28 03:33:11;;;;;;;3.03;1.97;;;;;;;15.18;100.00;97594.72;5093939;28;20208;-74
2023/08/28 03:35:37;;;;;;;2.73;1.90;;;;;;;15.11;100.00;97599.50;5093868;28;20200;-75
2023/08/28 03:38:05;;;;;;;2.40;2.00;;;;;;;15.03;100.00;97595.47;5094288;28;20215;-75
2023/08/28 03:40:32;;;;;;;3.07;2.00;;;;;;;15.11;100.00;97599.50;5094088;28;20224;-75
2023/08/28 03:42:58;;;;;;;5.13;1.90;;;;;;;15.14;100.00;97594.44;5094220;28;20203;-75
2023/08/28 03:45:24;;;;;;;1.93;1.83;;;;;;;15.18;100.00;97600.91;5094238;28;20204;-75
2023/08/28 03:47:50;;;;;;;4.37;1.90;;;;;;;15.11;100.00;97616.38;5093886;28;20204;-74
2023/08/28 03:50:17;;;;;;;1.87;1.77;;;;;;;15.25;100.00;97612.16;5094132;28;20219;-75
2023/08/28 03:52:43;;;;;;;2.63;1.90;;;;;;;15.18;100.00;97619.63;5094387;28;20204;-75
2023/08/28 03:55:10;;;;;;;3.47;2.17;;;;;;;15.11;100.00;97637.78;5094226;28;20200;-75
2023/08/28 03:57:37;;;;;;;4.53;2.10;;;;;;;15.01;100.00;97632.38;5094386;28;20259;-75
2023/08/28 04:00:10;;;;;;;4.10;2.13;;;;;;;15.16;100.00;97629.00;5094435;28;20223;-75
2023/08/28 04:02:37;;;;;;;4.00;2.00;;;;;;;15.22;100.00;97636.81;5090238;28;20329;-76
2023/08/28 04:05:04;;;;;;;2.20;2.00;;;;;;;15.23;100.00;97626.88;5077894;28;20205;-76
2023/08/28 04:07:32;;;;;;;2.03;1.80;;;;;;;15.17;100.00;97633.28;5085564;28;20587;-76
2023/08/28 04:09:59;;;;;;;2.60;2.17;;;;;;;15.20;100.00;97641.59;5082761;28;20216;-76
2023/08/28 04:12:25;;;;;;;2.77;2.10;;;;;;;15.26;100.00;97629.88;5077411;28;20200;-76
2023/08/28 04:14:52;;;;;;;3.97;2.10;;;;;;;15.17;100.00;97634.09;5077655;28;20201;-76
2023/08/28 04:17:18;;;;;;;4.20;2.00;;;;;;;15.22;100.00;97628.78;5082221;28;20219;-76
2023/08/28 04:19:44;;;;;;;1.97;1.80;;;;;;;15.16;100.00;97626.31;5080260;28;20579;-76
2023/08/28 04:22:11;;;;;;;4.00;2.30;;;;;;;15.13;100.00;97635.69;5077138;28;20715;-76
2023/08/28 04:24:37;;;;;;;2.73;2.10;;;;;;;15.15;100.00;97622.03;5077406;28;20258;-77
2023/08/28 04:27:04;;;;;;;4.17;2.20;;;;;;;15.14;100.00;97615.88;5097437;28;20208;-76
2023/08/28 04:29:30;;;;;;;2.47;2.10;;;;;;;15.11;100.00;97611.00;5092168;28;20219;-76
2023/08/28 04:31:56;;;;;;;3.33;1.83;;;;;;;15.17;100.00;97593.13;5082274;28;20197;-76
2023/08/28 04:34:23;;;;;;;4.40;2.07;;;;;;;15.08;100.00;97600.03;5082825;28;20205;-76
2023/08/28 04:36:49;;;;;;;2.97;2.27;;;;;;;15.04;100.00;97590.88;5086395;28;20228;-76
2023/08/28 04:39:15;;;;;;;4.03;2.07;;;;;;;15.07;100.00;97593.06;5082608;28;20216;-76
2023/08/28 04:41:42;;;;;;;3.87;1.87;;;;;;;15.18;100.00;97584.00;5085604;28;20686;-76
2023/08/28 04:44:08;;;;;;;2.47;2.17;;;;;;;15.12;100.00;97587.72;5077321;28;20205;-76
2023/08/28 04:46:35;;;;;;;3.20;2.10;;;;;;;15.13;100.00;97598.19;5076133;28;20231;-76
2023/08/28 04:49:01;;;;;;;4.33;2.30;;;;;;;15.19;100.00;97596.34;5077038;28;20224;-76
2023/08/28 04:51:27;;;;;;;4.03;2.27;;;;;;;15.16;100.00;97591.50;5095893;28;20282;-76
2023/08/28 04:53:54;;;;;;;4.27;1.80;;;;;;;15.30;100.00;97596.16;5096409;28;20215;-76
2023/08/28 04:56:20;;;;;;;2.53;2.23;;;;;;;15.31;100.00;97594.25;5098139;28;20303;-76
2023/08/28 04:58:46;;;;;;;2.37;2.17;;;;;;;15.26;100.00;97589.69;5095332;28;20224;-76
2023/08/28 05:01:13;;;;;;;2.30;2.10;;;;;;;15.18;100.00;97584.84;5096290;28;20204;-77
2023/08/28 05:03:39;;;;;;;3.67;2.40;;;;;;;15.22;100.00;97591.28;5096249;28;20204;-76
2023/08/28 05:06:06;;;;;;;2.67;2.47;;;;;;;15.20;100.00;97598.75;5096321;28;20200;-76
2023/08/28 05:08:32;;;;;;;3.80;2.40;;;;;;;15.24;100.00;97593.72;5096076;28;20295;-76
2023/08/28 05:11:00;;;;;;;2.77;2.50;;;;;;;15.31;100.00;97597.75;5095935;28;20663;-76
2023/08/28 05:13:26;;;;;;;4.67;2.60;;;;;;;15.25;100.00;97587.28;5096034;28;20206;-77
2023/08/28 05:15:53;;;;;;;5.27;3.00;;;;;;;15.21;100.00;97597.72;5095855;28;20208;-77
2023/08/28 05:18:19;;;;;;;5.83;2.83;;;;;;;15.24;100.00;97597.16;5095426;28;20224;-75
2023/08/28 05:20:45;;;;;;;3.17;2.50;;;;;;;15.42;100.00;97593.31;5096919;28;20204;-75
2023/08/28 05:23:12;;;;;;;2.77;2.57;;;;;;;15.36;100.00;97576.38;5095994;28;20285;-75
2023/08/28 05:25:38;;;;;;;5.80;2.70;;;;;;;15.30;100.00;97566.69;5095684;28;20671;-75
2023/08/28 05:28:05;;;;;;;4.27;2.83;;;;;;;15.31;100.00;97573.66;5095885;28;20200;-75
2023/08/28 05:30:31;;;;;;;6.30;3.10;;;;;;;15.36;100.00;97576.38;5096248;28;20239;-75
2023/08/28 05:32:58;;;;;;;4.30;2.60;;;;;;;15.39;100.00;97586.59;5096009;28;20203;-75
2023/08/28 05:35:24;;;;;;;6.20;2.83;;;;;;;15.34;100.00;97585.75;5095842;28;20203;-75
2023/08/28 05:37:51;;;;;;;5.90;3.17;;;;;;;15.36;100.00;97587.09;5096030;28;20230;-75
2023/08/28 05:40:17;;;;;;;3.23;2.50;;;;;;;15.42;100.00;97579.91;5096064;28;20707;-75
2023/08/28 05:42:45;;;;;;;5.10;3.00;;;;;;;15.25;100.00;97585.38;5097062;28;20200;-75
2023/08/28 05:45:11;;;;;;;5.03;2.70;;;;;;;15.37;100.00;97588.72;5096839;28;20208;-75
2023/08/28 05:47:38;;;;;;;6.47;3.23;;;;;;;15.44;100.00;97581.25;5096930;28;20200;-75
2023/08/28 05:50:05;;;;;;;6.67;3.23;;;;;;;15.27;100.00;97582.47;5096753;28;20300;-75
2023/08/28 05:52:31;;;;;;;5.10;3.00;;;;;;;15.43;100.00;97590.34;5095321;28;20214;-75
2023/08/28 05:54:57;;;;;;;5.73;3.53;;;;;;;15.34;100.00;97586.53;5096750;28;20685;-75
2023/08/28 05:57:24;;;;;;;4.07;3.63;;;;;;;15.32;100.00;97569.91;5095590;28;20589;-75
2023/08/28 05:59:51;;;;;;;3.93;3.53;;;;;;;15.34;100.00;97573.16;5095800;28;20223;-75
2023/08/28 06:02:18;;;;;;;4.70;3.37;;;;;;;15.28;100.00;97574.16;5095414;28;20214;-75
2023/08/28 06:04:48;;;;;;;4.70;3.60;;;;;;;15.19;100.00;97569.59;5095474;28;20204;-75
2023/08/28 06:07:14;;;;;;;5.77;3.80;;;;;;;15.20;100.00;97557.81;5095967;28;20200;-75
2023/08/28 06:09:43;;;;;;;7.23;3.67;;;;;;;15.29;100.00;97548.22;5095267;28;20732;-75
2023/08/28 06:12:09;;;;;;;5.47;3.73;;;;;;;15.34;100.00;97551.72;5095822;28;20204;-75
2023/08/28 06:14:36;;;;;;;5.23;3.97;;;;;;;15.42;100.00;97551.22;5095191;28;20200;-76
2023/08/28 06:17:03;;;;;;;4.73;4.23;;;;;;;15.39;100.00;97549.09;5094510;28;20224;-76
2023/08/28 06:19:29;;;;;;;5.70;4.10;;;;;;;15.48;100.00;97552.88;5094471;28;20773;-76
2023/08/28 06:21:56;;;;;;;6.60;4.53;;;;;;;15.51;100.00;97549.66;5094720;28;20215;-76
2023/08/28 06:24:22;;;;;;;6.57;4.50;;;;;;;15.46;100.00;97538.94;5094832;28;20200;-76
2023/08/28 06:26:49;;;;;;;4.40;3.80;;;;;;;15.71;100.00;97524.81;5094707;28;20226;-76
2023/08/28 06:29:15;;;;;;;6.53;4.10;;;;;;;15.53;100.00;97517.25;5094509;28;20242;-76
2023/08/28 06:31:41;;;;;;;4.77;3.47;;;;;;;15.75;100.00;97524.00;5094273;28;20287;-75
2023/08/28 06:34:09;;;;;;;4.70;4.20;;;;;;;15.37;100.00;97527.09;5094464;28;20206;-76
2023/08/28 06:36:35;;;;;;;5.07;4.20;;;;;;;15.47;100.00;97531.72;5094470;28;20552;-76
2023/08/28 06:39:02;;;;;;;6.70;4.63;;;;;;;15.57;100.00;97529.88;5094678;28;20259;-76
2023/08/28 06:41:29;;;;;;;5.47;4.93;;;;;;;15.62;100.00;97529.88;5094404;28;20215;-76
2023/08/28 06:43:55;;;;;;;7.87;5.03;;;;;;;15.73;100.00;97526.16;5094671;28;20203;-75
2023/08/28 06:46:21;;;;;;;5.07;4.57;;;;;;;15.55;100.00;97517.78;5094845;28;20230;-75
2023/08/28 06:48:48;;;;;;;4.70;4.30;;;;;;;15.79;100.00;97522.41;5094576;28;20215;-75
2023/08/28 06:51:14;;;;;;;6.07;5.37;;;;;;;15.68;100.00;97518.09;5094246;28;20208;-75
2023/08/28 06:53:41;;;;;;;5.37;4.53;;;;;;;15.73;100.00;97528.03;5094607;28;20200;-75
2023/08/28 06:56:07;;;;;;;6.70;4.87;;;;;;;15.83;100.00;97517.34;5094423;28;20199;-74
2023/08/28 06:58:33;;;;;;;5.67;4.70;;;;;;;15.67;100.00;97513.81;5094014;28;20231;-75
2023/08/28 07:01:00;;;;;;;5.47;4.97;;;;;;;15.77;100.00;97519.19;5094795;28;20214;-75
2023/08/28 07:03:26;;;;;;;7.10;5.70;;;;;;;15.52;100.00;97519.13;5094647;28;20574;-75
2023/08/28 07:05:53;;;;;;;7.90;5.07;;;;;;;15.64;100.00;97508.16;5095339;28;20215;-75
2023/08/28 07:08:19;;;;;;;6.00;5.40;;;;;;;15.58;100.00;97525.31;5094336;28;20204;-75
2023/08/28 07:10:45;;;;;;;6.77;5.03;;;;;;;15.62;100.00;97529.88;5094038;28;20689;-75
2023/08/28 07:13:12;;;;;;;6.83;5.20;;;;;;;15.67;100.00;97529.91;5094158;28;20204;-75
2023/08/28 07:15:41;;;;;;;6.67;6.00;;;;;;;15.89;100.00;97535.88;5093903;28;20203;-75
2023/08/28 07:18:07;;;;;;;7.10;5.20;;;;;;;15.86;100.00;97547.09;5094271;28;20228;-75
2023/08/28 07:20:34;;;;;;;5.30;4.80;;;;;;;16.02;100.00;97558.66;5094451;28;20307;-76
2023/08/28 07:23:01;;;;;;;6.07;5.13;;;;;;;15.73;100.00;97557.50;5094258;28;20200;-75
2023/08/28 07:25:27;;;;;;;5.80;5.20;;;;;;;15.83;100.00;97552.19;5094502;28;20298;-75
2023/08/28 07:27:54;;;;;;;6.37;4.97;;;;;;;15.86;100.00;97549.78;5093819;28;20662;-75
2023/08/28 07:30:21;;;;;;;4.97;4.53;;;;;;;16.02;100.00;97543.38;5094052;28;20238;-75
2023/08/28 07:32:48;;;;;;;5.50;5.10;;;;;;;15.79;100.00;97541.16;5094185;28;20214;-75
2023/08/28 07:35:14;;;;;;;6.20;5.00;;;;;;;15.82;100.00;97534.47;5094149;28;20214;-75
2023/08/28 07:37:41;;;;;;;4.40;4.00;;;;;;;15.77;100.00;97526.44;5094316;28;20228;-75
2023/08/28 07:40:09;;;;;;;4.97;4.50;;;;;;;15.77;100.00;97516.53;5094142;28;20228;-75
2023/08/28 07:42:36;;;;;;;4.87;4.47;;;;;;;15.64;100.00;97518.88;5094076;28;20204;-75
2023/08/28 07:45:03;;;;;;;5.07;3.83;;;;;;;15.94;100.00;97509.06;5094147;28;20208;-75
2023/08/28 07:47:30;;;;;;;6.27;4.33;;;;;;;15.79;100.00;97506.34;5094521;28;20274;-75
2023/08/28 07:49:57;;;;;;;4.87;4.00;;;;;;;15.78;100.00;97520.81;5093980;28;20231;-75
2023/08/28 07:52:23;;;;;;;6.43;4.63;;;;;;;15.79;100.00;97521.63;5094177;28;20212;-75
2023/08/28 07:54:50;;;;;;;6.67;5.10;;;;;;;15.76;100.00;97538.22;5093930;28;20200;-75
2023/08/28 07:57:16;;;;;;;6.47;5.03;;;;;;;15.84;100.00;97556.47;5093896;28;20230;-75
2023/08/28 07:59:43;;;;;;;6.43;4.80;;;;;;;16.24;100.00;97551.97;5092960;28;20228;-75
2023/08/28 08:02:10;;;;;;;6.03;4.60;;;;;;;16.29;100.00;97553.88;5093837;28;20203;-75
2023/08/28 08:04:36;;;;;;;5.50;3.80;;;;;;;16.01;100.00;97565.91;5093611;28;20769;-75
2023/08/28 08:07:02;;;;;;;6.50;3.70;;;;;;;16.13;100.00;97571.84;5094216;28;20250;-75
2023/08/28 08:09:29;;;;;;;4.33;3.50;;;;;;;16.10;100.00;97569.66;5093923;28;20243;-75
2023/08/28 08:11:55;;;;;;;4.40;3.07;;;;;;;15.90;100.00;97576.84;5093472;28;20206;-74
2023/08/28 08:14:22;;;;;;;2.90;2.60;;;;;;;16.24;100.00;97568.06;5093292;28;20210;-74
2023/08/28 08:16:48;;;;;;;4.30;3.17;;;;;;;16.09;100.00;97577.97;5093827;28;20219;-75
2023/08/28 08:19:14;;;;;;;4.43;3.23;;;;;;;16.25;100.00;97585.00;5093066;28;20238;-75
2023/08/28 08:21:41;;;;;;;4.53;3.20;;;;;;;16.39;100.00;97581.53;5093650;28;20208;-75
2023/08/28 08:24:07;;;;;;;4.77;3.07;;;;;;;16.04;100.00;97599.41;5093379;28;20257;-75
2023/08/28 08:26:34;;;;;;;5.83;2.40;;;;;;;15.94;100.00;97602.06;5093255;28;20547;-75
2023/08/28 08:29:00;;;;;;;2.60;2.40;;;;;;;16.29;100.00;97605.63;5093115;28;20293;-75
2023/08/28 08:31:27;;;;;;;2.87;2.30;;;;;;;16.17;100.00;97596.22;5093282;28;20206;-75
2023/08/28 08:33:53;;;;;;;2.70;1.87;;;;;;;16.53;100.00;97601.44;5093032;28;20226;-75
2023/08/28 08:36:19;;;;;;;2.77;2.10;;;;;;;16.43;100.00;97596.06;5093204;28;20207;-75
2023/08/28 08:38:46;;;;;;;2.10;2.00;;;;;;;16.39;100.00;97594.13;5093097;28;20231;-75
2023/08/28 08:41:12;;;;;;;2.70;1.60;;;;;;;16.43;100.00;97596.06;5093284;28;20204;-75
2023/08/28 08:43:39;;;;;;;4.37;2.00;;;;;;;16.61;100.00;97587.44;5092982;28;20580;-75
2023/08/28 08:46:08;;;;;;;3.00;1.87;;;;;;;16.49;100.00;97591.47;5093310;28;20208;-75
2023/08/28 08:48:36;;;;;;;3.17;2.00;;;;;;;16.54;100.00;97605.72;5092568;28;20544;-75
2023/08/28 08:51:07;;;;;;;3.27;2.00;;;;;;;16.34;100.00;97604.84;5093288;28;20212;-75
2023/08/28 08:53:40;;;;;;;6.10;2.00;;;;;;;16.25;100.00;97604.59;5093972;28;20212;-75
2023/08/28 08:56:09;;;;;;;5.03;2.37;;;;;;;16.10;100.00;97599.16;5096840;28;20292;-75
2023/08/28 08:58:35;;;;;;;4.63;1.97;;;;;;;16.20;100.00;97593.81;5096311;28;20265;-74
2023/08/28 09:01:04;;;;;;;3.20;1.63;;;;;;;16.07;100.00;97594.34;5096684;28;20577;-74
2023/08/28 09:03:30;;;;;;;5.10;2.00;;;;;;;16.21;100.00;97605.38;5096294;28;20552;-75
2023/08/28 09:05:59;;;;;;;3.40;1.70;;;;;;;16.30;100.00;97604.59;5096551;28;20306;-75
2023/08/28 09:08:26;;;;;;;3.63;2.10;;;;;;;16.22;100.00;97598.91;5096171;28;20199;-75
2023/08/28 09:10:59;;;;;;;6.10;2.03;;;;;;;16.35;100.00;97599.22;5096479;28;20207;-74
2023/08/28 09:13:25;;;;;;;4.93;2.10;;;;;;;16.29;100.00;97602.94;5096346;28;20195;-75
2023/08/28 09:15:52;;;;;;;2.80;2.13;;;;;;;16.25;100.00;97601.91;5096309;28;20210;-75
2023/08/28 09:18:19;;;;;;;3.67;1.80;;;;;;;16.43;100.00;97600.59;5096620;28;20220;-74
2023/08/28 09:21:06;;;;;;;2.63;1.97;;;;;;;16.45;100.00;97591.22;5096269;28;20206;-75
2023/08/28 09:23:32;;;;;;;4.53;2.50;;;;;;;16.29;100.00;97586.06;5096246;28;20245;-75
2023/08/28 09:26:00;;;;;;;3.47;1.83;;;;;;;16.51;100.00;97582.09;5096082;28;20210;-75
2023/08/28 09:28:27;;;;;;;2.80;1.90;;;;;;;16.68;100.00;97579.94;5095748;28;20200;-75
2023/08/28 09:30:53;;;;;;;3.57;2.03;;;;;;;16.41;100.00;97575.91;5095943;28;20198;-75
2023/08/28 09:33:20;;;;;;;3.07;2.27;;;;;;;16.64;100.00;97573.50;5095746;28;20226;-74
2023/08/28 09:35:46;;;;;;;4.60;2.00;;;;;;;16.30;100.00;97571.59;5095625;28;20204;-75
2023/08/28 09:38:13;;;;;;;1.90;1.70;;;;;;;16.43;100.00;97573.78;5095544;28;20223;-75
2023/08/28 09:40:42;;;;;;;6.43;1.80;;;;;;;16.52;100.00;97559.53;5095942;28;20224;-74
2023/08/28 09:43:16;;;;;;;2.03;1.70;;;;;;;16.24;100.00;97565.41;5095835;28;20204;-74
2023/08/28 09:45:45;;;;;;;2.00;1.60;;;;;;;16.31;100.00;97563.28;5095476;28;20550;-74
2023/08/28 09:48:12;;;;;;;2.60;1.53;;;;;;;16.32;100.00;97551.47;5095433;28;20211;-74
2023/08/28 09:50:40;;;;;;;1.60;1.47;;;;;;;16.56;100.00;97549.09;5095537;28;20319;-75
2023/08/28 09:53:09;;;;;;;1.87;1.73;;;;;;;16.94;100.00;97537.78;5095319;28;20757;-75
2023/08/28 09:55:52;;;;;;;2.23;1.50;;;;;;;16.93;100.00;97522.75;5095464;28;20200;-75
2023/08/28 09:58:20;;;;;;;2.03;1.87;;;;;;;16.69;100.00;97527.88;5095038;28;20228;-75
2023/08/28 10:00:46;;;;;;;2.63;1.53;;;;;;;17.05;100.00;97532.09;5095063;28;20663;-75
2023/08/28 10:03:15;;;;;;;3.10;1.50;;;;;;;17.11;100.00;97525.66;5095237;28;20234;-75
2023/08/28 10:05:43;;;;;;;2.77;1.70;;;;;;;16.97;100.00;97529.19;5095050;28;20214;-75
2023/08/28 10:08:11;;;;;;;1.77;1.30;;;;;;;17.41;100.00;97535.53;5095232;28;20273;-75
2023/08/28 10:10:39;;;;;;;2.33;1.50;;;;;;;17.34;100.00;97540.34;5095067;28;20251;-74
2023/08/28 10:13:10;;;;;;;2.00;1.20;;;;;;;17.46;100.00;97517.50;5095642;28;20210;-74
2023/08/28 10:15:47;;;;;;;1.20;1.10;;;;;;;17.17;100.00;97519.19;5095307;28;20194;-74
2023/08/28 10:18:21;;;;;;;1.20;1.10;;;;;;;17.27;100.00;97513.78;5094100;28;20657;-74
2023/08/28 10:20:48;;;;;;;2.00;1.30;;;;;;;17.65;100.00;97510.41;5094657;28;20188;-74
2023/08/28 10:23:16;;;;;;;4.00;1.37;;;;;;;17.78;100.00;97528.63;5095045;28;20207;-75
2023/08/28 10:25:44;;;;;;;1.30;1.20;;;;;;;17.97;100.00;97528.78;5095111;28;20210;-75
2023/08/28 10:28:12;;;;;;;1.80;1.30;;;;;;;18.16;100.00;97529.75;5094436;28;20200;-75
2023/08/28 10:30:39;;;;;;;2.10;1.20;;;;;;;18.10;100.00;97533.56;5094867;28;20228;-75
2023/08/28 10:33:07;;;;;;;1.57;1.17;;;;;;;18.13;100.00;97528.41;5094634;28;20204;-75
2023/08/28 10:35:34;;;;;;;4.03;1.30;;;;;;;17.78;100.00;97525.94;5095402;28;20204;-75
2023/08/28 10:38:02;;;;;;;1.63;1.23;;;;;;;18.11;100.00;97519.03;5094241;28;20594;-75
2023/08/28 10:40:29;;;;;;;1.30;1.20;;;;;;;17.93;100.00;97511.59;5094484;28;20266;-75
2023/08/28 10:42:56;;;;;;;2.83;1.07;;;;;;;18.01;100.00;97503.75;5094161;28;20241;-75
2023/08/28 10:45:23;;;;;;;1.77;1.27;;;;;;;17.79;100.00;97498.00;5093670;28;20204;-75
2023/08/28 10:47:50;;;;;;;1.77;1.20;;;;;;;17.37;100.00;97494.94;5094499;28;20202;-75
2023/08/28 10:50:17;;;;;;;1.77;1.30;;;;;;;17.55;100.00;97496.22;5095128;28;20224;-75
2023/08/28 10:52:45;;;;;;;2.03;1.20;;;;;;;18.08;100.00;97498.88;5094751;28;20218;-75
2023/08/28 10:55:18;;;;;;;1.30;1.03;;;;;;;18.11;100.00;97489.44;5094478;28;20208;-75
2023/08/28 10:57:50;;;;;;;1.50;1.40;;;;;;;17.99;100.00;97479.03;5094108;28;20278;-75
2023/08/28 11:00:18;;;;;;;1.73;1.20;;;;;;;18.07;100.00;97480.31;5094236;28;20224;-75
2023/08/28 11:03:18;;;;;;;1.00;0.90;;;;;;;18.29;100.00;97468.03;5094002;28;20675;-75
2023/08/28 11:05:45;;;;;;;1.13;1.00;;;;;;;18.52;100.00;97461.94;5050243;28;20238;-75
2023/08/28 11:08:15;;;;;;;1.07;1.00;;;;;;;18.67;100.00;97469.88;5094208;28;20196;-75
2023/08/28 11:10:45;;;;;;;0.80;0.80;;;;;;;18.24;100.00;97476.13;5094534;28;20262;-75
2023/08/28 11:13:25;;;;;;;2.30;1.00;;;;;;;18.18;98.81;97479.94;5094134;28;20243;-75
2023/08/28 11:16:03;;;;;;;3.55;1.20;;;;;;;18.06;99.55;97487.56;5093256;28;20459;-75
2023/08/28 11:18:30;;;;;;;2.47;1.13;;;;;;;18.03;100.00;97484.63;5094261;28;20207;-75
2023/08/28 11:21:02;;;;;;;1.37;1.20;;;;;;;17.89;100.00;97484.47;5094283;28;20261;-75
2023/08/28 11:23:34;;;;;;;1.50;1.10;;;;;;;17.97;100.00;97486.53;5094253;28;20203;-75
2023/08/28 11:26:20;;;;;;;3.27;1.30;;;;;;;17.74;100.00;97481.06;5094038;28;20242;-75